sensor_id;sensor_type;location;lat;lon;timestamp;P1;durP1;ratioP1;P2;durP2;ratioP2
7667;SDS011;3876;42.204;24.686;2023-09-07T00:00:42;5.40;;;4.07;;
7667;SDS011;3876;42.204;24.686;2023-09-07T00:03:08;6.40;;;4.80;;
7667;SDS011;3876;42.204;24.686;2023-09-07T00:05:35;8.10;;;4.10;;
7667;SDS011;3876;42.204;24.686;2023-09-07T00:08:02;5.53;;;5.07;;
7667;SDS011;3876;42.204;24.686;2023-09-07T00:10:29;5.03;;;4.63;;
7667;SDS011;3876;42.204;24.686;2023-09-07T00:12:56;5.33;;;4.83;;
7667;SDS011;3876;42.204;24.686;2023-09-07T00:15:24;5.53;;;4.87;;
7667;SDS011;3876;42.204;24.686;2023-09-07T00:17:51;5.33;;;4.03;;
7667;SDS011;3876;42.204;24.686;2023-09-07T00:20:18;5.10;;;4.70;;
7667;SDS011;3876;42.204;24.686;2023-09-07T00:22:46;4.03;;;3.77;;
7667;SDS011;3876;42.204;24.686;2023-09-07T00:25:13;5.80;;;4.87;;
7667;SDS011;3876;42.204;24.686;2023-09-07T00:27:40;4.70;;;4.43;;
7667;SDS011;3876;42.204;24.686;2023-09-07T00:30:07;5.63;;;4.57;;
7667;SDS011;3876;42.204;24.686;2023-09-07T00:32:36;7.27;;;5.33;;
7667;SDS011;3876;42.204;24.686;2023-09-07T00:35:04;4.97;;;4.63;;
7667;SDS011;3876;42.204;24.686;2023-09-07T00:37:31;5.07;;;4.60;;
7667;SDS011;3876;42.204;24.686;2023-09-07T00:39:58;4.20;;;4.00;;
7667;SDS011;3876;42.204;24.686;2023-09-07T00:42:25;7.93;;;4.00;;
7667;SDS011;3876;42.204;24.686;2023-09-07T00:44:53;5.17;;;4.70;;
7667;SDS011;3876;42.204;24.686;2023-09-07T00:47:19;4.77;;;4.13;;
7667;SDS011;3876;42.204;24.686;2023-09-07T00:49:49;5.80;;;4.50;;
7667;SDS011;3876;42.204;24.686;2023-09-07T00:52:16;5.43;;;5.13;;
7667;SDS011;3876;42.204;24.686;2023-09-07T00:54:44;5.33;;;4.93;;
7667;SDS011;3876;42.204;24.686;2023-09-07T00:57:11;4.93;;;4.57;;
7667;SDS011;3876;42.204;24.686;2023-09-07T00:59:38;4.97;;;4.67;;
7667;SDS011;3876;42.204;24.686;2023-09-07T01:02:05;6.27;;;4.57;;
7667;SDS011;3876;42.204;24.686;2023-09-07T01:04:31;5.47;;;5.00;;
7667;SDS011;3876;42.204;24.686;2023-09-07T01:07:02;5.03;;;4.73;;
7667;SDS011;3876;42.204;24.686;2023-09-07T01:09:34;4.37;;;4.07;;
7667;SDS011;3876;42.204;24.686;2023-09-07T01:12:03;6.20;;;5.00;;
7667;SDS011;3876;42.204;24.686;2023-09-07T01:14:30;4.60;;;4.20;;
7667;SDS011;3876;42.204;24.686;2023-09-07T01:16:57;5.53;;;5.23;;
7667;SDS011;3876;42.204;24.686;2023-09-07T01:19:23;5.47;;;4.97;;
7667;SDS011;3876;42.204;24.686;2023-09-07T01:21:52;5.63;;;5.00;;
7667;SDS011;3876;42.204;24.686;2023-09-07T01:24:19;4.13;;;3.83;;
7667;SDS011;3876;42.204;24.686;2023-09-07T01:26:47;5.20;;;4.90;;
7667;SDS011;3876;42.204;24.686;2023-09-07T01:29:14;5.47;;;5.07;;
7667;SDS011;3876;42.204;24.686;2023-09-07T01:31:42;4.67;;;4.37;;
7667;SDS011;3876;42.204;24.686;2023-09-07T01:34:09;6.93;;;5.10;;
7667;SDS011;3876;42.204;24.686;2023-09-07T01:36:36;5.93;;;5.37;;
7667;SDS011;3876;42.204;24.686;2023-09-07T01:39:04;5.33;;;4.63;;
7667;SDS011;3876;42.204;24.686;2023-09-07T01:41:32;5.00;;;4.80;;
7667;SDS011;3876;42.204;24.686;2023-09-07T01:43:59;6.07;;;5.40;;
7667;SDS011;3876;42.204;24.686;2023-09-07T01:46:26;5.33;;;4.83;;
7667;SDS011;3876;42.204;24.686;2023-09-07T01:48:53;6.17;;;4.33;;
7667;SDS011;3876;42.204;24.686;2023-09-07T01:51:19;16.93;;;5.07;;
7667;SDS011;3876;42.204;24.686;2023-09-07T01:53:47;5.20;;;4.77;;
7667;SDS011;3876;42.204;24.686;2023-09-07T01:56:16;5.87;;;5.37;;
7667;SDS011;3876;42.204;24.686;2023-09-07T01:58:43;5.47;;;5.17;;
7667;SDS011;3876;42.204;24.686;2023-09-07T02:01:19;6.03;;;5.43;;
7667;SDS011;3876;42.204;24.686;2023-09-07T02:03:47;4.57;;;4.23;;
7667;SDS011;3876;42.204;24.686;2023-09-07T02:06:14;5.40;;;4.93;;
7667;SDS011;3876;42.204;24.686;2023-09-07T02:08:41;4.60;;;4.30;;
7667;SDS011;3876;42.204;24.686;2023-09-07T02:11:07;5.07;;;4.70;;
7667;SDS011;3876;42.204;24.686;2023-09-07T02:13:36;5.40;;;4.97;;
7667;SDS011;3876;42.204;24.686;2023-09-07T02:16:03;6.13;;;4.80;;
7667;SDS011;3876;42.204;24.686;2023-09-07T02:18:30;5.47;;;5.07;;
7667;SDS011;3876;42.204;24.686;2023-09-07T02:21:00;10.57;;;5.10;;
7667;SDS011;3876;42.204;24.686;2023-09-07T02:23:28;7.03;;;6.43;;
7667;SDS011;3876;42.204;24.686;2023-09-07T02:25:55;6.90;;;6.40;;
7667;SDS011;3876;42.204;24.686;2023-09-07T02:28:22;5.07;;;4.77;;
7667;SDS011;3876;42.204;24.686;2023-09-07T02:30:51;4.07;;;3.77;;
7667;SDS011;3876;42.204;24.686;2023-09-07T02:33:18;6.17;;;5.67;;
7667;SDS011;3876;42.204;24.686;2023-09-07T02:35:44;8.23;;;5.73;;
7667;SDS011;3876;42.204;24.686;2023-09-07T02:38:11;4.70;;;4.40;;
7667;SDS011;3876;42.204;24.686;2023-09-07T02:40:41;5.93;;;5.43;;
7667;SDS011;3876;42.204;24.686;2023-09-07T02:43:08;4.50;;;4.10;;
7667;SDS011;3876;42.204;24.686;2023-09-07T02:45:35;7.20;;;5.37;;
7667;SDS011;3876;42.204;24.686;2023-09-07T02:48:03;5.43;;;4.17;;
7667;SDS011;3876;42.204;24.686;2023-09-07T02:53:26;4.70;;;4.33;;
7667;SDS011;3876;42.204;24.686;2023-09-07T02:55:53;4.97;;;4.53;;
7667;SDS011;3876;42.204;24.686;2023-09-07T02:58:20;5.23;;;4.87;;
7667;SDS011;3876;42.204;24.686;2023-09-07T03:00:46;4.97;;;4.60;;
7667;SDS011;3876;42.204;24.686;2023-09-07T03:03:14;4.93;;;4.53;;
7667;SDS011;3876;42.204;24.686;2023-09-07T03:05:42;5.53;;;5.03;;
7667;SDS011;3876;42.204;24.686;2023-09-07T03:08:11;5.70;;;5.20;;
7667;SDS011;3876;42.204;24.686;2023-09-07T03:10:38;5.23;;;4.83;;
7667;SDS011;3876;42.204;24.686;2023-09-07T03:13:06;4.50;;;4.20;;
7667;SDS011;3876;42.204;24.686;2023-09-07T03:15:33;4.33;;;4.03;;
7667;SDS011;3876;42.204;24.686;2023-09-07T03:18:00;4.63;;;4.23;;
7667;SDS011;3876;42.204;24.686;2023-09-07T03:20:28;5.20;;;4.13;;
7667;SDS011;3876;42.204;24.686;2023-09-07T03:22:55;4.63;;;4.23;;
7667;SDS011;3876;42.204;24.686;2023-09-07T03:25:22;7.40;;;4.97;;
7667;SDS011;3876;42.204;24.686;2023-09-07T03:27:49;5.13;;;4.27;;
7667;SDS011;3876;42.204;24.686;2023-09-07T03:30:16;4.77;;;4.37;;
7667;SDS011;3876;42.204;24.686;2023-09-07T03:32:43;4.33;;;4.13;;
7667;SDS011;3876;42.204;24.686;2023-09-07T03:35:09;5.30;;;4.90;;
7667;SDS011;3876;42.204;24.686;2023-09-07T03:37:37;5.73;;;5.23;;
7667;SDS011;3876;42.204;24.686;2023-09-07T03:40:05;5.67;;;4.43;;
7667;SDS011;3876;42.204;24.686;2023-09-07T03:42:34;4.30;;;3.70;;
7667;SDS011;3876;42.204;24.686;2023-09-07T03:45:01;4.67;;;4.27;;
7667;SDS011;3876;42.204;24.686;2023-09-07T03:47:28;5.23;;;4.80;;
7667;SDS011;3876;42.204;24.686;2023-09-07T03:49:55;4.40;;;4.20;;
7667;SDS011;3876;42.204;24.686;2023-09-07T03:52:22;7.77;;;4.80;;
7667;SDS011;3876;42.204;24.686;2023-09-07T03:54:51;5.77;;;3.63;;
7667;SDS011;3876;42.204;24.686;2023-09-07T03:57:18;8.30;;;4.37;;
7667;SDS011;3876;42.204;24.686;2023-09-07T03:59:45;4.57;;;4.27;;
7667;SDS011;3876;42.204;24.686;2023-09-07T04:02:11;4.53;;;4.17;;
7667;SDS011;3876;42.204;24.686;2023-09-07T04:04:38;4.40;;;4.07;;
7667;SDS011;3876;42.204;24.686;2023-09-07T04:07:05;4.87;;;4.47;;
7667;SDS011;3876;42.204;24.686;2023-09-07T04:09:32;5.47;;;4.87;;
7667;SDS011;3876;42.204;24.686;2023-09-07T04:12:00;4.93;;;4.50;;
7667;SDS011;3876;42.204;24.686;2023-09-07T04:14:28;4.57;;;4.33;;
7667;SDS011;3876;42.204;24.686;2023-09-07T04:16:55;5.03;;;4.53;;
7667;SDS011;3876;42.204;24.686;2023-09-07T04:19:22;5.83;;;5.20;;
7667;SDS011;3876;42.204;24.686;2023-09-07T04:21:48;5.87;;;5.17;;
7667;SDS011;3876;42.204;24.686;2023-09-07T04:24:16;6.07;;;5.47;;
7667;SDS011;3876;42.204;24.686;2023-09-07T04:26:47;6.97;;;5.40;;
7667;SDS011;3876;42.204;24.686;2023-09-07T04:29:15;5.97;;;5.47;;
7667;SDS011;3876;42.204;24.686;2023-09-07T04:31:42;5.33;;;4.77;;
7667;SDS011;3876;42.204;24.686;2023-09-07T04:34:09;5.13;;;4.83;;
7667;SDS011;3876;42.204;24.686;2023-09-07T04:36:35;5.67;;;5.17;;
7667;SDS011;3876;42.204;24.686;2023-09-07T04:39:02;5.03;;;4.63;;
7667;SDS011;3876;42.204;24.686;2023-09-07T04:41:29;4.97;;;4.57;;
7667;SDS011;3876;42.204;24.686;2023-09-07T04:43:56;5.60;;;4.93;;
7667;SDS011;3876;42.204;24.686;2023-09-07T04:46:24;7.67;;;6.17;;
7667;SDS011;3876;42.204;24.686;2023-09-07T04:48:51;6.40;;;5.90;;
7667;SDS011;3876;42.204;24.686;2023-09-07T04:51:18;5.10;;;4.73;;
7667;SDS011;3876;42.204;24.686;2023-09-07T04:53:45;5.40;;;5.00;;
7667;SDS011;3876;42.204;24.686;2023-09-07T04:56:12;6.83;;;5.87;;
7667;SDS011;3876;42.204;24.686;2023-09-07T04:58:41;5.20;;;4.80;;
7667;SDS011;3876;42.204;24.686;2023-09-07T05:01:08;5.73;;;5.30;;
7667;SDS011;3876;42.204;24.686;2023-09-07T05:03:37;6.73;;;5.43;;
7667;SDS011;3876;42.204;24.686;2023-09-07T05:06:05;6.53;;;5.00;;
7667;SDS011;3876;42.204;24.686;2023-09-07T05:08:32;6.10;;;5.73;;
7667;SDS011;3876;42.204;24.686;2023-09-07T05:11:00;6.07;;;5.50;;
7667;SDS011;3876;42.204;24.686;2023-09-07T05:13:28;9.90;;;5.13;;
7667;SDS011;3876;42.204;24.686;2023-09-07T05:15:55;5.57;;;5.10;;
7667;SDS011;3876;42.204;24.686;2023-09-07T05:18:24;5.30;;;4.90;;
7667;SDS011;3876;42.204;24.686;2023-09-07T05:20:52;5.93;;;5.00;;
7667;SDS011;3876;42.204;24.686;2023-09-07T05:23:19;5.97;;;5.57;;
7667;SDS011;3876;42.204;24.686;2023-09-07T05:25:47;10.10;;;5.43;;
7667;SDS011;3876;42.204;24.686;2023-09-07T05:28:15;6.70;;;6.13;;
7667;SDS011;3876;42.204;24.686;2023-09-07T05:30:43;6.20;;;5.60;;
7667;SDS011;3876;42.204;24.686;2023-09-07T05:33:10;8.63;;;5.23;;
7667;SDS011;3876;42.204;24.686;2023-09-07T05:35:38;5.87;;;5.37;;
7667;SDS011;3876;42.204;24.686;2023-09-07T05:38:08;5.20;;;4.80;;
7667;SDS011;3876;42.204;24.686;2023-09-07T05:40:35;5.73;;;5.33;;
7667;SDS011;3876;42.204;24.686;2023-09-07T05:43:03;6.80;;;5.27;;
7667;SDS011;3876;42.204;24.686;2023-09-07T05:45:29;7.80;;;4.97;;
7667;SDS011;3876;42.204;24.686;2023-09-07T05:47:57;5.73;;;5.33;;
7667;SDS011;3876;42.204;24.686;2023-09-07T05:50:23;8.17;;;5.20;;
7667;SDS011;3876;42.204;24.686;2023-09-07T05:52:50;6.37;;;5.77;;
7667;SDS011;3876;42.204;24.686;2023-09-07T05:55:18;5.00;;;4.50;;
7667;SDS011;3876;42.204;24.686;2023-09-07T05:57:45;5.07;;;4.57;;
7667;SDS011;3876;42.204;24.686;2023-09-07T06:00:12;4.50;;;4.07;;
7667;SDS011;3876;42.204;24.686;2023-09-07T06:02:41;5.53;;;4.53;;
7667;SDS011;3876;42.204;24.686;2023-09-07T06:05:07;8.60;;;4.40;;
7667;SDS011;3876;42.204;24.686;2023-09-07T06:07:35;4.83;;;4.43;;
7667;SDS011;3876;42.204;24.686;2023-09-07T06:10:02;4.63;;;3.57;;
7667;SDS011;3876;42.204;24.686;2023-09-07T06:12:32;5.07;;;4.60;;
7667;SDS011;3876;42.204;24.686;2023-09-07T06:14:58;4.80;;;4.37;;
7667;SDS011;3876;42.204;24.686;2023-09-07T06:17:25;6.87;;;5.07;;
7667;SDS011;3876;42.204;24.686;2023-09-07T06:19:54;4.53;;;4.23;;
7667;SDS011;3876;42.204;24.686;2023-09-07T06:22:21;5.83;;;4.77;;
7667;SDS011;3876;42.204;24.686;2023-09-07T06:24:48;4.33;;;4.00;;
7667;SDS011;3876;42.204;24.686;2023-09-07T06:27:15;4.90;;;4.60;;
7667;SDS011;3876;42.204;24.686;2023-09-07T06:29:43;4.83;;;4.37;;
7667;SDS011;3876;42.204;24.686;2023-09-07T06:32:10;4.63;;;4.23;;
7667;SDS011;3876;42.204;24.686;2023-09-07T06:34:37;6.97;;;4.37;;
7667;SDS011;3876;42.204;24.686;2023-09-07T06:37:06;7.90;;;4.50;;
7667;SDS011;3876;42.204;24.686;2023-09-07T06:39:33;4.00;;;3.70;;
7667;SDS011;3876;42.204;24.686;2023-09-07T06:42:00;4.13;;;3.83;;
7667;SDS011;3876;42.204;24.686;2023-09-07T06:44:27;4.30;;;3.90;;
7667;SDS011;3876;42.204;24.686;2023-09-07T06:46:55;4.57;;;4.03;;
7667;SDS011;3876;42.204;24.686;2023-09-07T06:49:22;6.47;;;3.00;;
7667;SDS011;3876;42.204;24.686;2023-09-07T06:51:49;4.10;;;3.90;;
7667;SDS011;3876;42.204;24.686;2023-09-07T06:54:15;6.40;;;4.43;;
7667;SDS011;3876;42.204;24.686;2023-09-07T06:56:42;4.17;;;3.77;;
7667;SDS011;3876;42.204;24.686;2023-09-07T06:59:09;3.30;;;3.03;;
7667;SDS011;3876;42.204;24.686;2023-09-07T07:01:36;3.50;;;3.20;;
7667;SDS011;3876;42.204;24.686;2023-09-07T07:04:05;3.97;;;3.67;;
7667;SDS011;3876;42.204;24.686;2023-09-07T07:06:32;3.40;;;3.17;;
7667;SDS011;3876;42.204;24.686;2023-09-07T07:09:00;3.83;;;2.83;;
7667;SDS011;3876;42.204;24.686;2023-09-07T07:11:27;2.77;;;2.60;;
7667;SDS011;3876;42.204;24.686;2023-09-07T07:13:54;2.70;;;2.60;;
7667;SDS011;3876;42.204;24.686;2023-09-07T07:16:21;3.07;;;2.93;;
7667;SDS011;3876;42.204;24.686;2023-09-07T07:18:47;3.33;;;3.00;;
7667;SDS011;3876;42.204;24.686;2023-09-07T07:21:15;3.43;;;3.13;;
7667;SDS011;3876;42.204;24.686;2023-09-07T07:23:42;4.00;;;3.70;;
7667;SDS011;3876;42.204;24.686;2023-09-07T07:26:09;2.70;;;2.50;;
7667;SDS011;3876;42.204;24.686;2023-09-07T07:28:36;3.33;;;3.13;;
7667;SDS011;3876;42.204;24.686;2023-09-07T07:31:07;2.30;;;2.20;;
7667;SDS011;3876;42.204;24.686;2023-09-07T07:33:34;2.60;;;2.40;;
7667;SDS011;3876;42.204;24.686;2023-09-07T07:36:02;2.20;;;2.03;;
7667;SDS011;3876;42.204;24.686;2023-09-07T07:38:30;3.03;;;2.50;;
7667;SDS011;3876;42.204;24.686;2023-09-07T07:40:57;2.57;;;2.47;;
7667;SDS011;3876;42.204;24.686;2023-09-07T07:43:24;3.03;;;2.87;;
7667;SDS011;3876;42.204;24.686;2023-09-07T07:45:51;2.97;;;2.87;;
7667;SDS011;3876;42.204;24.686;2023-09-07T07:48:18;2.10;;;2.00;;
7667;SDS011;3876;42.204;24.686;2023-09-07T07:50:45;4.33;;;2.50;;
7667;SDS011;3876;42.204;24.686;2023-09-07T07:53:12;2.80;;;2.60;;
7667;SDS011;3876;42.204;24.686;2023-09-07T07:55:41;5.37;;;2.23;;
7667;SDS011;3876;42.204;24.686;2023-09-07T07:58:08;2.37;;;2.27;;
7667;SDS011;3876;42.204;24.686;2023-09-07T08:00:35;2.73;;;2.60;;
7667;SDS011;3876;42.204;24.686;2023-09-07T08:03:03;2.20;;;2.10;;
7667;SDS011;3876;42.204;24.686;2023-09-07T08:05:32;2.50;;;2.40;;
7667;SDS011;3876;42.204;24.686;2023-09-07T08:07:59;2.83;;;2.63;;
7667;SDS011;3876;42.204;24.686;2023-09-07T08:10:26;2.60;;;2.50;;
7667;SDS011;3876;42.204;24.686;2023-09-07T08:12:55;2.80;;;2.60;;
7667;SDS011;3876;42.204;24.686;2023-09-07T08:15:22;2.10;;;2.00;;
7667;SDS011;3876;42.204;24.686;2023-09-07T08:17:50;2.77;;;2.67;;
7667;SDS011;3876;42.204;24.686;2023-09-07T08:20:17;3.17;;;2.97;;
7667;SDS011;3876;42.204;24.686;2023-09-07T08:22:44;2.27;;;2.17;;
7667;SDS011;3876;42.204;24.686;2023-09-07T08:25:10;2.93;;;2.77;;
7667;SDS011;3876;42.204;24.686;2023-09-07T08:27:38;2.63;;;2.43;;
7667;SDS011;3876;42.204;24.686;2023-09-07T08:30:10;2.93;;;2.73;;
7667;SDS011;3876;42.204;24.686;2023-09-07T08:32:38;2.63;;;2.43;;
7667;SDS011;3876;42.204;24.686;2023-09-07T08:35:04;5.23;;;2.53;;
7667;SDS011;3876;42.204;24.686;2023-09-07T08:37:34;3.07;;;2.87;;
7667;SDS011;3876;42.204;24.686;2023-09-07T08:40:01;2.33;;;2.23;;
7667;SDS011;3876;42.204;24.686;2023-09-07T08:42:30;3.30;;;3.00;;
7667;SDS011;3876;42.204;24.686;2023-09-07T08:44:56;2.83;;;2.57;;
7667;SDS011;3876;42.204;24.686;2023-09-07T08:47:33;2.53;;;2.43;;
7667;SDS011;3876;42.204;24.686;2023-09-07T08:50:00;4.57;;;4.13;;
7667;SDS011;3876;42.204;24.686;2023-09-07T08:52:27;10.50;;;8.00;;
7667;SDS011;3876;42.204;24.686;2023-09-07T08:54:55;4.93;;;3.57;;
7667;SDS011;3876;42.204;24.686;2023-09-07T08:57:23;2.63;;;2.43;;
7667;SDS011;3876;42.204;24.686;2023-09-07T08:59:51;3.03;;;2.90;;
7667;SDS011;3876;42.204;24.686;2023-09-07T09:02:17;2.90;;;2.70;;
7667;SDS011;3876;42.204;24.686;2023-09-07T09:04:47;2.27;;;2.17;;
7667;SDS011;3876;42.204;24.686;2023-09-07T09:07:14;3.30;;;3.10;;
7667;SDS011;3876;42.204;24.686;2023-09-07T09:09:40;2.60;;;2.50;;
7667;SDS011;3876;42.204;24.686;2023-09-07T09:12:07;2.20;;;2.10;;
7667;SDS011;3876;42.204;24.686;2023-09-07T09:14:35;2.30;;;2.20;;
7667;SDS011;3876;42.204;24.686;2023-09-07T09:17:02;2.47;;;2.37;;
7667;SDS011;3876;42.204;24.686;2023-09-07T09:19:31;2.23;;;2.13;;
7667;SDS011;3876;42.204;24.686;2023-09-07T09:22:00;2.53;;;2.43;;
7667;SDS011;3876;42.204;24.686;2023-09-07T09:24:31;2.90;;;2.70;;
7667;SDS011;3876;42.204;24.686;2023-09-07T09:26:58;2.83;;;2.73;;
7667;SDS011;3876;42.204;24.686;2023-09-07T09:29:25;2.67;;;2.57;;
7667;SDS011;3876;42.204;24.686;2023-09-07T09:31:52;2.50;;;2.40;;
7667;SDS011;3876;42.204;24.686;2023-09-07T09:34:19;2.80;;;2.63;;
7667;SDS011;3876;42.204;24.686;2023-09-07T09:36:46;2.30;;;2.20;;
7667;SDS011;3876;42.204;24.686;2023-09-07T09:39:22;2.93;;;2.70;;
7667;SDS011;3876;42.204;24.686;2023-09-07T09:41:50;2.30;;;2.20;;
7667;SDS011;3876;42.204;24.686;2023-09-07T09:44:16;2.50;;;2.30;;
7667;SDS011;3876;42.204;24.686;2023-09-07T09:46:46;2.27;;;2.17;;
7667;SDS011;3876;42.204;24.686;2023-09-07T09:49:14;2.53;;;2.33;;
7667;SDS011;3876;42.204;24.686;2023-09-07T09:51:43;2.77;;;2.57;;
7667;SDS011;3876;42.204;24.686;2023-09-07T09:54:12;2.93;;;2.73;;
7667;SDS011;3876;42.204;24.686;2023-09-07T09:56:40;2.50;;;2.40;;
7667;SDS011;3876;42.204;24.686;2023-09-07T09:59:07;3.27;;;2.97;;
7667;SDS011;3876;42.204;24.686;2023-09-07T10:01:37;2.60;;;2.40;;
7667;SDS011;3876;42.204;24.686;2023-09-07T10:04:11;5.50;;;2.50;;
7667;SDS011;3876;42.204;24.686;2023-09-07T10:06:49;2.23;;;2.13;;
7667;SDS011;3876;42.204;24.686;2023-09-07T10:09:17;2.20;;;2.10;;
7667;SDS011;3876;42.204;24.686;2023-09-07T10:11:50;2.10;;;2.00;;
7667;SDS011;3876;42.204;24.686;2023-09-07T10:14:19;2.97;;;2.77;;
7667;SDS011;3876;42.204;24.686;2023-09-07T10:16:58;2.13;;;2.03;;
7667;SDS011;3876;42.204;24.686;2023-09-07T10:19:35;2.00;;;1.90;;
7667;SDS011;3876;42.204;24.686;2023-09-07T10:22:30;2.03;;;1.93;;
7667;SDS011;3876;42.204;24.686;2023-09-07T10:25:14;2.60;;;2.50;;
7667;SDS011;3876;42.204;24.686;2023-09-07T10:27:51;1.70;;;1.60;;
7667;SDS011;3876;42.204;24.686;2023-09-07T10:30:18;5.97;;;1.70;;
7667;SDS011;3876;42.204;24.686;2023-09-07T10:32:48;2.00;;;1.90;;
7667;SDS011;3876;42.204;24.686;2023-09-07T10:35:15;1.67;;;1.57;;
7667;SDS011;3876;42.204;24.686;2023-09-07T10:37:47;2.17;;;2.03;;
7667;SDS011;3876;42.204;24.686;2023-09-07T10:40:18;3.20;;;1.53;;
7667;SDS011;3876;42.204;24.686;2023-09-07T10:42:47;2.20;;;2.00;;
7667;SDS011;3876;42.204;24.686;2023-09-07T10:45:15;1.77;;;1.67;;
7667;SDS011;3876;42.204;24.686;2023-09-07T10:47:42;1.60;;;1.60;;
7667;SDS011;3876;42.204;24.686;2023-09-07T10:50:11;1.60;;;1.50;;
7667;SDS011;3876;42.204;24.686;2023-09-07T10:52:39;1.53;;;1.50;;
7667;SDS011;3876;42.204;24.686;2023-09-07T10:55:06;1.60;;;1.50;;
7667;SDS011;3876;42.204;24.686;2023-09-07T10:57:44;1.60;;;1.50;;
7667;SDS011;3876;42.204;24.686;2023-09-07T11:00:14;2.43;;;2.23;;
7667;SDS011;3876;42.204;24.686;2023-09-07T11:02:42;1.97;;;1.87;;
7667;SDS011;3876;42.204;24.686;2023-09-07T11:05:09;2.83;;;2.73;;
7667;SDS011;3876;42.204;24.686;2023-09-07T11:07:36;1.77;;;1.67;;
7667;SDS011;3876;42.204;24.686;2023-09-07T11:10:05;1.53;;;1.47;;
7667;SDS011;3876;42.204;24.686;2023-09-07T11:12:36;1.90;;;1.80;;
7667;SDS011;3876;42.204;24.686;2023-09-07T11:15:04;2.03;;;1.92;;
7667;SDS011;3876;42.204;24.686;2023-09-07T11:17:37;2.00;;;1.90;;
7667;SDS011;3876;42.204;24.686;2023-09-07T11:20:06;2.05;;;1.95;;
7667;SDS011;3876;42.204;24.686;2023-09-07T11:22:35;2.45;;;2.35;;
7667;SDS011;3876;42.204;24.686;2023-09-07T11:25:04;2.23;;;2.13;;
7667;SDS011;3876;42.204;24.686;2023-09-07T11:27:31;2.10;;;2.00;;
7667;SDS011;3876;42.204;24.686;2023-09-07T11:29:58;3.20;;;2.10;;
7667;SDS011;3876;42.204;24.686;2023-09-07T11:32:32;1.45;;;1.35;;
7667;SDS011;3876;42.204;24.686;2023-09-07T11:35:02;1.90;;;1.80;;
7667;SDS011;3876;42.204;24.686;2023-09-07T11:37:32;1.93;;;1.83;;
7667;SDS011;3876;42.204;24.686;2023-09-07T11:40:00;1.95;;;1.85;;
7667;SDS011;3876;42.204;24.686;2023-09-07T11:42:29;2.15;;;1.95;;
7667;SDS011;3876;42.204;24.686;2023-09-07T11:44:56;1.77;;;1.67;;
7667;SDS011;3876;42.204;24.686;2023-09-07T11:47:23;1.70;;;1.60;;
7667;SDS011;3876;42.204;24.686;2023-09-07T11:49:49;2.05;;;1.95;;
7667;SDS011;3876;42.204;24.686;2023-09-07T11:52:19;2.00;;;1.90;;
7667;SDS011;3876;42.204;24.686;2023-09-07T11:54:46;2.05;;;1.95;;
7667;SDS011;3876;42.204;24.686;2023-09-07T11:57:13;1.75;;;1.67;;
7667;SDS011;3876;42.204;24.686;2023-09-07T11:59:41;1.55;;;1.52;;
7667;SDS011;3876;42.204;24.686;2023-09-07T12:02:07;2.15;;;1.70;;
7667;SDS011;3876;42.204;24.686;2023-09-07T12:04:36;2.53;;;2.42;;
7667;SDS011;3876;42.204;24.686;2023-09-07T12:07:03;2.40;;;1.80;;
7667;SDS011;3876;42.204;24.686;2023-09-07T12:09:31;2.03;;;1.93;;
7667;SDS011;3876;42.204;24.686;2023-09-07T12:11:58;1.60;;;1.60;;
7667;SDS011;3876;42.204;24.686;2023-09-07T12:14:25;2.05;;;1.95;;
7667;SDS011;3876;42.204;24.686;2023-09-07T12:16:51;1.80;;;1.70;;
7667;SDS011;3876;42.204;24.686;2023-09-07T12:19:18;2.45;;;2.25;;
7667;SDS011;3876;42.204;24.686;2023-09-07T12:21:45;1.93;;;1.83;;
7667;SDS011;3876;42.204;24.686;2023-09-07T12:24:11;1.90;;;1.80;;
7667;SDS011;3876;42.204;24.686;2023-09-07T12:26:40;1.80;;;1.70;;
7667;SDS011;3876;42.204;24.686;2023-09-07T12:29:06;2.00;;;1.90;;
7667;SDS011;3876;42.204;24.686;2023-09-07T12:31:33;1.73;;;1.63;;
7667;SDS011;3876;42.204;24.686;2023-09-07T12:34:00;1.67;;;1.60;;
7667;SDS011;3876;42.204;24.686;2023-09-07T12:36:27;2.33;;;1.83;;
7667;SDS011;3876;42.204;24.686;2023-09-07T12:38:55;3.30;;;2.03;;
7667;SDS011;3876;42.204;24.686;2023-09-07T12:41:26;1.92;;;1.83;;
7667;SDS011;3876;42.204;24.686;2023-09-07T12:44:19;1.58;;;1.48;;
7667;SDS011;3876;42.204;24.686;2023-09-07T12:46:49;1.50;;;1.40;;
7667;SDS011;3876;42.204;24.686;2023-09-07T12:49:17;1.83;;;1.73;;
7667;SDS011;3876;42.204;24.686;2023-09-07T12:51:45;1.90;;;1.80;;
7667;SDS011;3876;42.204;24.686;2023-09-07T12:54:11;1.92;;;1.83;;
7667;SDS011;3876;42.204;24.686;2023-09-07T12:56:38;1.77;;;1.77;;
7667;SDS011;3876;42.204;24.686;2023-09-07T12:59:05;1.90;;;1.80;;
7667;SDS011;3876;42.204;24.686;2023-09-07T13:01:41;2.50;;;2.40;;
7667;SDS011;3876;42.204;24.686;2023-09-07T13:04:30;1.98;;;1.88;;
7667;SDS011;3876;42.204;24.686;2023-09-07T13:06:57;1.38;;;1.30;;
7667;SDS011;3876;42.204;24.686;2023-09-07T13:09:26;2.10;;;2.00;;
7667;SDS011;3876;42.204;24.686;2023-09-07T13:11:53;1.88;;;1.77;;
7667;SDS011;3876;42.204;24.686;2023-09-07T13:14:19;3.05;;;1.77;;
7667;SDS011;3876;42.204;24.686;2023-09-07T13:19:36;2.28;;;2.10;;
7667;SDS011;3876;42.204;24.686;2023-09-07T13:22:02;2.25;;;2.15;;
7667;SDS011;3876;42.204;24.686;2023-09-07T13:24:31;1.63;;;1.52;;
7667;SDS011;3876;42.204;24.686;2023-09-07T13:26:57;1.90;;;1.80;;
7667;SDS011;3876;42.204;24.686;2023-09-07T13:29:24;2.28;;;2.17;;
7667;SDS011;3876;42.204;24.686;2023-09-07T13:31:51;2.20;;;2.08;;
7667;SDS011;3876;42.204;24.686;2023-09-07T13:34:20;2.30;;;2.20;;
7667;SDS011;3876;42.204;24.686;2023-09-07T13:36:47;2.13;;;2.03;;
7667;SDS011;3876;42.204;24.686;2023-09-07T13:39:14;1.77;;;1.73;;
7667;SDS011;3876;42.204;24.686;2023-09-07T13:41:42;2.03;;;1.92;;
7667;SDS011;3876;42.204;24.686;2023-09-07T13:44:08;1.20;;;1.20;;
7667;SDS011;3876;42.204;24.686;2023-09-07T13:46:35;2.22;;;1.73;;
7667;SDS011;3876;42.204;24.686;2023-09-07T13:49:02;1.50;;;1.40;;
7667;SDS011;3876;42.204;24.686;2023-09-07T13:51:30;1.80;;;1.70;;
7667;SDS011;3876;42.204;24.686;2023-09-07T13:54:02;2.08;;;1.98;;
7667;SDS011;3876;42.204;24.686;2023-09-07T13:56:30;2.05;;;1.33;;
7667;SDS011;3876;42.204;24.686;2023-09-07T13:58:57;1.92;;;1.83;;
7667;SDS011;3876;42.204;24.686;2023-09-07T14:01:24;1.83;;;1.73;;
7667;SDS011;3876;42.204;24.686;2023-09-07T14:03:51;1.98;;;1.88;;
7667;SDS011;3876;42.204;24.686;2023-09-07T14:06:18;2.10;;;1.97;;
7667;SDS011;3876;42.204;24.686;2023-09-07T14:08:49;2.27;;;2.17;;
7667;SDS011;3876;42.204;24.686;2023-09-07T14:11:16;2.00;;;1.90;;
7667;SDS011;3876;42.204;24.686;2023-09-07T14:13:43;1.83;;;1.73;;
7667;SDS011;3876;42.204;24.686;2023-09-07T14:16:09;1.60;;;1.60;;
7667;SDS011;3876;42.204;24.686;2023-09-07T14:18:36;1.97;;;1.83;;
7667;SDS011;3876;42.204;24.686;2023-09-07T14:21:03;1.67;;;1.67;;
7667;SDS011;3876;42.204;24.686;2023-09-07T14:23:30;1.43;;;1.43;;
7667;SDS011;3876;42.204;24.686;2023-09-07T14:25:58;2.03;;;1.93;;
7667;SDS011;3876;42.204;24.686;2023-09-07T14:28:25;2.37;;;2.20;;
7667;SDS011;3876;42.204;24.686;2023-09-07T14:30:52;1.90;;;1.73;;
7667;SDS011;3876;42.204;24.686;2023-09-07T14:33:20;2.10;;;2.00;;
7667;SDS011;3876;42.204;24.686;2023-09-07T14:35:46;1.60;;;1.53;;
7667;SDS011;3876;42.204;24.686;2023-09-07T14:38:19;2.03;;;1.93;;
7667;SDS011;3876;42.204;24.686;2023-09-07T14:40:45;1.80;;;1.80;;
7667;SDS011;3876;42.204;24.686;2023-09-07T14:43:15;1.77;;;1.67;;
7667;SDS011;3876;42.204;24.686;2023-09-07T14:45:42;2.05;;;1.95;;
7667;SDS011;3876;42.204;24.686;2023-09-07T14:48:10;1.83;;;1.73;;
7667;SDS011;3876;42.204;24.686;2023-09-07T14:50:37;2.00;;;1.90;;
7667;SDS011;3876;42.204;24.686;2023-09-07T14:53:04;1.90;;;1.80;;
7667;SDS011;3876;42.204;24.686;2023-09-07T14:55:31;2.40;;;2.20;;
7667;SDS011;3876;42.204;24.686;2023-09-07T14:57:58;1.40;;;1.30;;
7667;SDS011;3876;42.204;24.686;2023-09-07T15:00:26;2.95;;;2.75;;
7667;SDS011;3876;42.204;24.686;2023-09-07T15:02:57;2.00;;;1.90;;
7667;SDS011;3876;42.204;24.686;2023-09-07T15:05:24;2.40;;;2.20;;
7667;SDS011;3876;42.204;24.686;2023-09-07T15:07:51;1.77;;;1.67;;
7667;SDS011;3876;42.204;24.686;2023-09-07T15:10:17;3.07;;;1.87;;